createdAt,value
2022-10-05T00:01:58.168Z,7.80
2022-10-05T00:04:28.975Z,7.50
2022-10-05T00:06:57.263Z,8.05
2022-10-05T00:09:24.175Z,7.88
2022-10-05T00:11:51.688Z,7.65
2022-10-05T00:14:28.951Z,8.35
2022-10-05T00:16:56.981Z,7.97
2022-10-05T00:19:35.709Z,7.38
2022-10-05T00:22:22.657Z,7.70
2022-10-05T00:24:56.478Z,8.20
2022-10-05T00:27:37.981Z,8.48
2022-10-05T00:30:20.072Z,8.55
2022-10-05T00:32:47.291Z,7.75
2022-10-05T00:35:16.241Z,8.00
2022-10-05T00:37:44.629Z,7.97
2022-10-05T00:40:11.551Z,8.15
2022-10-05T00:43:07.381Z,8.40
2022-10-05T00:45:40.014Z,8.45
2022-10-05T00:48:12.653Z,8.50
2022-10-05T00:50:49.402Z,8.20
2022-10-05T00:53:53.876Z,8.17
2022-10-05T00:56:41.998Z,8.68
2022-10-05T00:59:25.210Z,8.05
2022-10-05T01:02:01.056Z,8.13
2022-10-05T01:04:55.755Z,8.60
2022-10-05T01:07:50.384Z,9.07
2022-10-05T01:10:44.992Z,9.00
2022-10-05T01:13:32.090Z,9.50
2022-10-05T01:16:15.552Z,9.15
2022-10-05T01:18:50.412Z,9.73
2022-10-05T01:21:20.038Z,10.05
2022-10-05T01:24:08.176Z,9.65
2022-10-05T01:26:47.286Z,9.75
2022-10-05T01:29:30.551Z,9.38
2022-10-05T01:32:14.268Z,9.40
2022-10-05T01:35:02.816Z,9.90
2022-10-05T01:37:40.309Z,9.52
2022-10-05T01:40:27.800Z,9.43
2022-10-05T01:43:25.020Z,9.33
2022-10-05T01:46:06.880Z,9.30
2022-10-05T01:49:07.603Z,9.00
2022-10-05T01:52:02.397Z,9.70
2022-10-05T01:54:38.091Z,10.32
2022-10-05T01:57:04.917Z,9.63
2022-10-05T01:59:46.927Z,10.38
2022-10-05T02:02:18.935Z,9.80
2022-10-05T02:05:02.290Z,9.50
2022-10-05T02:08:26.769Z,10.07
2022-10-05T02:11:07.398Z,9.90
2022-10-05T02:13:38.821Z,9.50
2022-10-05T02:16:49.946Z,9.35
2022-10-05T02:19:25.640Z,9.13
2022-10-05T02:21:59.274Z,8.98
2022-10-05T02:24:32.428Z,9.43
2022-10-05T02:26:59.859Z,9.95
2022-10-05T02:29:33.196Z,10.00
2022-10-05T02:32:11.466Z,9.70
2022-10-05T02:34:40.622Z,10.63
2022-10-05T02:37:57.325Z,9.80
2022-10-05T02:40:34.760Z,9.73
2022-10-05T02:43:40.092Z,9.93
2022-10-05T02:46:27.421Z,9.68
2022-10-05T02:49:14.111Z,9.55
2022-10-05T02:51:56.452Z,9.57
2022-10-05T02:54:23.661Z,9.00
2022-10-05T02:56:58.222Z,9.68
2022-10-05T02:59:51.872Z,9.38
2022-10-05T03:02:33.938Z,9.23
2022-10-05T03:05:19.109Z,8.70
2022-10-05T03:07:54.659Z,9.50
2022-10-05T03:10:50.818Z,9.10
2022-10-05T03:13:34.246Z,8.40
2022-10-05T03:16:17.083Z,8.77
2022-10-05T03:19:05.114Z,8.33
2022-10-05T03:21:41.474Z,9.55
2022-10-05T03:24:44.411Z,8.70
2022-10-05T03:27:37.482Z,9.02
2022-10-05T03:30:23.786Z,9.00
2022-10-05T03:33:14.172Z,8.97
2022-10-05T03:35:41.363Z,8.80
2022-10-05T03:38:34.391Z,8.82
2022-10-05T03:41:25.539Z,8.77
2022-10-05T03:44:23.210Z,8.18
2022-10-05T03:46:56.415Z,8.38
2022-10-05T03:49:44.570Z,8.38
2022-10-05T03:52:18.812Z,7.95
2022-10-05T03:55:09.490Z,8.25
2022-10-05T03:57:40.253Z,7.70
2022-10-05T04:00:19.929Z,7.80
2022-10-05T04:03:12.486Z,7.30
2022-10-05T04:05:55.521Z,7.68
2022-10-05T04:08:48.090Z,7.45
2022-10-05T04:11:26.413Z,7.38
2022-10-05T04:14:14.748Z,7.73
2022-10-05T04:16:57.817Z,7.20
2022-10-05T04:19:47.661Z,7.07
2022-10-05T04:22:44.178Z,6.70
2022-10-05T04:25:18.354Z,7.30
2022-10-05T04:28:03.235Z,6.60
2022-10-05T04:30:32.251Z,6.28
2022-10-05T04:33:00.748Z,6.50
2022-10-05T04:35:52.716Z,6.37
2022-10-05T04:38:31.590Z,5.97
2022-10-05T04:41:22.852Z,5.40
2022-10-05T04:44:41.159Z,5.60
2022-10-05T04:47:21.928Z,5.10
2022-10-05T04:50:08.125Z,4.90
2022-10-05T04:52:35.203Z,4.60
2022-10-05T04:55:22.545Z,4.43
2022-10-05T04:58:11.174Z,3.72
2022-10-05T05:00:44.706Z,3.40
2022-10-05T05:03:41.069Z,3.85
2022-10-05T05:06:32.367Z,3.70
2022-10-05T05:09:37.563Z,3.92
2022-10-05T05:12:11.054Z,3.85
2022-10-05T05:14:42.208Z,3.70
2022-10-05T05:17:37.063Z,3.70
2022-10-05T05:20:18.331Z,3.80
2022-10-05T05:23:10.210Z,4.32
2022-10-05T05:25:40.857Z,4.50
2022-10-05T05:28:24.649Z,4.40
2022-10-05T05:31:13.140Z,4.15
2022-10-05T05:33:54.662Z,4.20
2022-10-05T05:36:55.384Z,3.92
2022-10-05T05:39:49.304Z,3.90
2022-10-05T05:42:45.979Z,4.15
2022-10-05T05:45:50.080Z,4.05
2022-10-05T05:48:26.713Z,4.03
2022-10-05T05:51:13.301Z,4.20
2022-10-05T05:54:01.504Z,3.80
2022-10-05T05:56:37.574Z,3.85
2022-10-05T05:59:17.597Z,4.18
2022-10-05T06:01:52.472Z,4.20
2022-10-05T06:04:27.271Z,4.50
2022-10-05T06:06:57.397Z,4.97
2022-10-05T06:09:31.208Z,4.40
2022-10-05T06:12:34.683Z,4.85
2022-10-05T06:15:30.739Z,5.03
2022-10-05T06:18:01.368Z,5.10
2022-10-05T06:20:45.304Z,5.03
2022-10-05T06:23:18.645Z,5.07
2022-10-05T06:25:54.776Z,5.10
2022-10-05T06:28:27.173Z,4.30
2022-10-05T06:31:24.890Z,4.47
2022-10-05T06:34:05.820Z,4.40
2022-10-05T06:36:45.739Z,4.50
2022-10-05T06:39:22.830Z,4.18
2022-10-05T06:41:55.972Z,4.63
2022-10-05T06:45:02.001Z,4.63
2022-10-05T06:48:24.038Z,4.30
2022-10-05T06:51:36.275Z,4.45
2022-10-05T06:54:38.217Z,4.57
2022-10-05T06:57:19.263Z,4.70
2022-10-05T07:00:05.286Z,4.75
2022-10-05T07:03:15.217Z,4.50
2022-10-05T07:05:45.156Z,4.60
2022-10-05T07:08:16.540Z,4.50
2022-10-05T07:10:49.290Z,4.40
2022-10-05T07:13:48.780Z,4.40
2022-10-05T07:16:45.423Z,4.30
2022-10-05T07:19:27.811Z,4.70
2022-10-05T07:22:04.582Z,5.00
2022-10-05T07:24:33.501Z,4.60
2022-10-05T07:27:20.467Z,4.32
2022-10-05T07:30:02.373Z,4.63
2022-10-05T07:32:43.164Z,4.43
2022-10-05T07:35:34.228Z,4.93
2022-10-05T07:38:11.470Z,4.40
2022-10-05T07:40:59.399Z,4.38
2022-10-05T07:44:01.066Z,4.43
2022-10-05T07:46:42.545Z,4.38
2022-10-05T07:49:19.470Z,4.25
2022-10-05T07:51:51.251Z,4.28
2022-10-05T07:54:30.393Z,4.28
2022-10-05T07:57:25.842Z,4.35
2022-10-05T08:00:05.829Z,4.32
2022-10-05T08:02:49.069Z,4.47
2022-10-05T08:05:19.875Z,4.75
2022-10-05T08:07:52.270Z,4.40
2022-10-05T08:10:34.977Z,4.50
2022-10-05T08:13:27.246Z,5.20
2022-10-05T08:15:59.917Z,5.05
2022-10-05T08:19:00.911Z,4.53
2022-10-05T08:21:43.203Z,4.72
2022-10-05T08:24:39.647Z,4.80
2022-10-05T08:27:11.784Z,4.70
2022-10-05T08:29:56.864Z,4.50
2022-10-05T08:32:41.113Z,4.25
2022-10-05T08:35:34.768Z,4.00
2022-10-05T08:38:16.684Z,4.07
2022-10-05T08:41:21.352Z,4.05
2022-10-05T08:44:09.415Z,4.00
2022-10-05T08:46:51.332Z,4.00
2022-10-05T08:50:09.788Z,3.97
2022-10-05T08:53:08.778Z,3.95
2022-10-05T08:56:10.464Z,3.83
2022-10-05T08:58:43.227Z,5.50
2022-10-05T09:01:21.619Z,3.72
2022-10-05T09:04:14.676Z,5.82
2022-10-05T09:07:12.795Z,3.63
2022-10-05T09:10:01.978Z,3.20
2022-10-05T09:13:07.523Z,3.50
2022-10-05T09:16:16.860Z,3.40
2022-10-05T09:18:52.888Z,3.53
2022-10-05T09:21:42.355Z,3.70
2022-10-05T09:24:22.677Z,3.70
2022-10-05T09:27:17.915Z,4.20
2022-10-05T09:29:50.727Z,3.90
2022-10-05T09:32:52.025Z,5.45
2022-10-05T09:35:53.282Z,4.00
2022-10-05T09:39:00.710Z,3.85
2022-10-05T09:41:39.534Z,3.70
2022-10-05T09:44:30.705Z,3.63
2022-10-05T09:47:22.467Z,3.50
2022-10-05T09:50:28.068Z,3.80
2022-10-05T09:53:29.824Z,2.93
2022-10-05T09:56:43.823Z,2.92
2022-10-05T09:59:22.518Z,3.10
2022-10-05T10:02:15.342Z,3.10
2022-10-05T10:05:20.114Z,3.40
2022-10-05T10:08:20.228Z,3.50
2022-10-05T10:10:48.189Z,3.90
2022-10-05T10:13:55.751Z,4.00
2022-10-05T10:16:41.306Z,3.95
2022-10-05T10:19:24.977Z,3.95
2022-10-05T10:22:21.046Z,4.20
2022-10-05T10:25:25.417Z,4.50
2022-10-05T10:28:15.309Z,4.43
2022-10-05T10:31:00.046Z,4.15
2022-10-05T10:33:48.586Z,4.50
2022-10-05T10:36:42.914Z,4.70
2022-10-05T10:39:21.579Z,4.47
2022-10-05T10:42:08.014Z,4.50
2022-10-05T10:44:42.448Z,4.68
2022-10-05T10:47:33.637Z,4.57
2022-10-05T10:50:18.494Z,4.40
2022-10-05T10:52:54.398Z,4.90
2022-10-05T10:55:30.874Z,5.70
2022-10-05T10:58:16.502Z,4.63
2022-10-05T11:01:01.581Z,4.50
2022-10-05T11:04:02.271Z,4.67
2022-10-05T11:06:56.634Z,4.70
2022-10-05T11:09:44.886Z,4.50
2022-10-05T11:12:36.506Z,4.50
2022-10-05T11:15:21.354Z,5.65
2022-10-05T11:18:17.692Z,6.07
2022-10-05T11:21:02.388Z,5.72
2022-10-05T11:23:54.172Z,3.90
2022-10-05T11:26:32.533Z,8.40
2022-10-05T11:29:11.279Z,4.53
2022-10-05T11:32:22.563Z,3.55
2022-10-05T11:35:24.566Z,3.50
2022-10-05T11:38:12.924Z,3.45
2022-10-05T11:41:02.157Z,3.45
2022-10-05T11:43:47.688Z,3.30
2022-10-05T11:46:49.167Z,3.75
2022-10-05T11:49:33.717Z,3.92
2022-10-05T11:52:35.568Z,3.13
2022-10-05T11:55:20.731Z,7.03
2022-10-05T11:57:56.044Z,3.75
2022-10-05T12:00:40.614Z,3.47
2022-10-05T12:03:31.354Z,3.33
2022-10-05T12:06:15.763Z,3.70
2022-10-05T12:09:18.161Z,3.10
2022-10-05T12:12:07.978Z,4.95
2022-10-05T12:15:17.393Z,3.40
2022-10-05T12:17:53.203Z,3.22
2022-10-05T12:20:23.165Z,2.88
2022-10-05T12:22:58.909Z,3.20
2022-10-05T12:25:34.305Z,3.17
2022-10-05T12:28:09.135Z,4.35
2022-10-05T12:31:08.816Z,3.47
2022-10-05T12:34:21.197Z,3.00
2022-10-05T12:37:05.547Z,4.15
2022-10-05T12:39:56.486Z,3.00
2022-10-05T12:42:42.086Z,3.47
2022-10-05T12:45:26.410Z,3.30
2022-10-05T12:48:25.745Z,3.20
2022-10-05T12:51:09.253Z,3.17
2022-10-05T12:53:48.359Z,3.53
2022-10-05T12:56:36.897Z,3.10
2022-10-05T12:59:24.469Z,3.17
2022-10-05T13:02:20.113Z,2.90
2022-10-05T13:04:56.072Z,3.10
2022-10-05T13:07:41.798Z,2.92
2022-10-05T13:10:14.587Z,2.90
2022-10-05T13:13:12.349Z,3.10
2022-10-05T13:15:51.454Z,2.95
2022-10-05T13:18:49.788Z,2.90
2022-10-05T13:21:42.663Z,2.97
2022-10-05T13:24:31.118Z,2.90
2022-10-05T13:27:05.187Z,3.22
2022-10-05T13:29:38.677Z,3.03
2022-10-05T13:32:41.028Z,3.00
2022-10-05T13:35:22.075Z,3.87
2022-10-05T13:38:01.732Z,4.72
2022-10-05T13:40:35.900Z,3.60
2022-10-05T13:43:33.890Z,3.17
2022-10-05T13:46:17.487Z,3.30
2022-10-05T13:49:06.667Z,2.90
2022-10-05T13:51:40.911Z,2.70
2022-10-05T13:54:49.990Z,3.00
2022-10-05T13:57:45.169Z,3.13
2022-10-05T14:00:22.729Z,7.20
2022-10-05T14:02:56.651Z,2.67
2022-10-05T14:05:27.025Z,2.80
2022-10-05T14:07:53.907Z,6.45
2022-10-05T14:10:35.827Z,4.13
2022-10-05T14:13:16.438Z,6.85
2022-10-05T14:16:15.799Z,6.75
2022-10-05T14:19:05.910Z,3.10
2022-10-05T14:21:47.137Z,2.78
2022-10-05T14:24:43.739Z,3.00
2022-10-05T14:27:26.877Z,3.80
2022-10-05T14:30:01.863Z,3.90
2022-10-05T14:32:44.167Z,3.42
2022-10-05T14:35:12.850Z,4.68
2022-10-05T14:38:02.147Z,2.60
2022-10-05T14:40:36.405Z,2.50
2022-10-05T14:43:15.593Z,2.55
2022-10-05T14:46:25.006Z,2.70
2022-10-05T14:49:21.136Z,2.60
2022-10-05T14:51:49.808Z,2.40
2022-10-05T14:54:46.089Z,2.90
2022-10-05T14:57:25.328Z,2.30
2022-10-05T15:00:11.341Z,3.15
2022-10-05T15:03:04.460Z,2.60
2022-10-05T15:05:37.082Z,7.45
2022-10-05T15:08:13.214Z,2.60
2022-10-05T15:10:42.182Z,2.50
2022-10-05T15:13:25.758Z,2.55
2022-10-05T15:15:56.720Z,2.78
2022-10-05T15:18:50.000Z,2.60
2022-10-05T15:21:26.649Z,2.60
2022-10-05T15:23:57.509Z,3.08
2022-10-05T15:26:46.025Z,2.78
2022-10-05T15:29:26.073Z,2.72
2022-10-05T15:32:06.661Z,2.50
2022-10-05T15:34:52.186Z,2.70
2022-10-05T15:37:43.904Z,2.90
2022-10-05T15:40:28.598Z,2.47
2022-10-05T15:43:02.167Z,2.50
2022-10-05T15:45:39.985Z,2.65
2022-10-05T15:48:29.170Z,2.70
2022-10-05T15:51:21.292Z,2.70
2022-10-05T15:54:42.582Z,2.30
2022-10-05T15:57:27.820Z,2.30
2022-10-05T16:00:19.106Z,2.38
2022-10-05T16:03:13.207Z,2.38
2022-10-05T16:06:13.137Z,2.53
2022-10-05T16:09:05.935Z,2.65
2022-10-05T16:12:02.457Z,2.40
2022-10-05T16:15:02.098Z,2.60
2022-10-05T16:17:33.720Z,2.50
2022-10-05T16:20:20.677Z,2.38
2022-10-05T16:23:01.150Z,2.63
2022-10-05T16:25:40.640Z,2.47
2022-10-05T16:28:24.068Z,2.47
2022-10-05T16:31:19.687Z,2.30
2022-10-05T16:33:55.888Z,2.70
2022-10-05T16:36:39.661Z,2.78
2022-10-05T16:39:45.025Z,2.58
2022-10-05T16:42:24.847Z,2.30
2022-10-05T16:45:16.467Z,2.25
2022-10-05T16:47:50.285Z,2.20
2022-10-05T16:50:28.422Z,2.50
2022-10-05T16:53:12.419Z,2.30
2022-10-05T16:55:45.479Z,2.50
2022-10-05T16:58:24.264Z,2.50
2022-10-05T17:01:11.023Z,2.30
2022-10-05T17:04:00.193Z,2.50
2022-10-05T17:06:45.905Z,2.40
2022-10-05T17:09:42.818Z,2.63
2022-10-05T17:12:18.910Z,2.60
2022-10-05T17:15:12.510Z,2.47
2022-10-05T17:17:54.827Z,2.60
2022-10-05T17:21:02.562Z,2.60
2022-10-05T17:23:50.292Z,2.78
2022-10-05T17:26:23.106Z,2.30
2022-10-05T17:29:25.141Z,2.55
2022-10-05T17:32:07.284Z,3.00
2022-10-05T17:34:36.794Z,2.40
2022-10-05T17:37:42.636Z,2.50
2022-10-05T17:41:00.363Z,2.40
2022-10-05T17:43:30.670Z,2.83
2022-10-05T17:46:00.529Z,2.53
2022-10-05T17:48:48.794Z,2.30
2022-10-05T17:51:37.106Z,2.30
2022-10-05T17:54:40.793Z,2.67
2022-10-05T17:57:07.614Z,2.45
2022-10-05T17:59:37.032Z,2.60
2022-10-05T18:02:36.295Z,2.55
2022-10-05T18:05:04.455Z,2.60
2022-10-05T18:07:33.909Z,2.42
2022-10-05T18:10:09.826Z,2.50
2022-10-05T18:12:36.963Z,2.83
2022-10-05T18:15:03.786Z,2.58
2022-10-05T18:17:51.749Z,2.58
2022-10-05T18:20:26.325Z,2.80
2022-10-05T18:23:14.417Z,2.65
2022-10-05T18:26:04.681Z,2.55
2022-10-05T18:28:31.657Z,2.60
2022-10-05T18:31:17.501Z,2.80
2022-10-05T18:33:59.608Z,2.42
2022-10-05T18:37:07.336Z,3.00
2022-10-05T18:39:49.426Z,2.55
2022-10-05T18:42:37.370Z,2.58
2022-10-05T18:45:29.892Z,2.70
2022-10-05T18:48:31.130Z,2.78
2022-10-05T18:51:17.837Z,2.70
2022-10-05T18:54:18.040Z,2.65
2022-10-05T18:56:52.721Z,2.90
2022-10-05T18:59:45.125Z,2.90
2022-10-05T19:02:27.175Z,2.78
2022-10-05T19:05:46.529Z,2.80
2022-10-05T19:08:30.336Z,2.65
2022-10-05T19:11:24.265Z,3.53
2022-10-05T19:14:24.044Z,2.60
2022-10-05T19:17:28.846Z,3.08
2022-10-05T19:20:06.340Z,2.70
2022-10-05T19:22:36.009Z,2.80
2022-10-05T19:25:34.070Z,2.90
2022-10-05T19:28:10.849Z,13.35
2022-10-05T19:30:59.623Z,2.50
2022-10-05T19:33:31.468Z,2.50
2022-10-05T19:36:04.146Z,2.35
2022-10-05T19:39:01.950Z,6.25
2022-10-05T19:41:52.059Z,2.97
2022-10-05T19:44:53.142Z,2.78
2022-10-05T19:47:26.153Z,2.45
2022-10-05T19:49:54.315Z,2.70
2022-10-05T19:52:28.496Z,2.42
2022-10-05T19:55:31.577Z,2.13
2022-10-05T19:58:02.508Z,2.13
2022-10-05T20:00:31.743Z,1.80
2022-10-05T20:03:12.403Z,1.80
2022-10-05T20:05:40.123Z,1.90
2022-10-05T20:08:08.007Z,1.75
2022-10-05T20:10:35.030Z,2.10
2022-10-05T20:13:04.165Z,1.90
2022-10-05T20:15:51.966Z,1.73
2022-10-05T20:18:57.973Z,2.38
2022-10-05T20:21:43.228Z,2.30
2022-10-05T20:24:17.381Z,2.25
2022-10-05T20:27:02.024Z,2.58
2022-10-05T20:29:30.618Z,2.60
2022-10-05T20:31:57.827Z,2.47
2022-10-05T20:34:24.895Z,2.50
2022-10-05T20:36:52.385Z,2.78
2022-10-05T20:39:21.352Z,2.50
2022-10-05T20:41:51.854Z,2.85
2022-10-05T20:44:18.747Z,2.47
2022-10-05T20:46:46.631Z,2.70
2022-10-05T20:49:13.769Z,2.40
2022-10-05T20:51:40.818Z,2.50
2022-10-05T20:54:08.219Z,2.43
2022-10-05T20:56:35.403Z,2.30
2022-10-05T20:59:02.435Z,2.50
2022-10-05T21:01:31.950Z,2.50
2022-10-05T21:03:58.886Z,2.35
2022-10-05T21:06:29.927Z,2.58
2022-10-05T21:08:56.747Z,2.70
2022-10-05T21:11:23.718Z,2.60
2022-10-05T21:13:51.226Z,2.80
2022-10-05T21:16:19.714Z,2.87
2022-10-05T21:18:48.780Z,2.50
2022-10-05T21:21:17.437Z,2.50
2022-10-05T21:23:48.425Z,2.20
2022-10-05T21:26:15.554Z,2.40
2022-10-05T21:28:42.482Z,2.58
2022-10-05T21:31:09.479Z,2.07
2022-10-05T21:33:36.949Z,2.10
2022-10-05T21:36:04.034Z,1.77
2022-10-05T21:38:31.120Z,2.08
2022-10-05T21:40:58.175Z,2.20
2022-10-05T21:43:25.567Z,1.90
2022-10-05T21:45:55.249Z,2.30
2022-10-05T21:48:23.265Z,1.90
2022-10-05T21:50:50.238Z,1.95
2022-10-05T21:53:20.360Z,1.95
2022-10-05T21:55:49.801Z,2.00
2022-10-05T21:58:18.885Z,2.30
2022-10-05T22:00:45.741Z,2.50
2022-10-05T22:03:12.624Z,2.40
2022-10-05T22:05:39.540Z,2.63
2022-10-05T22:08:07.109Z,2.70
2022-10-05T22:10:34.180Z,2.50
2022-10-05T22:13:04.446Z,2.30
2022-10-05T22:15:31.811Z,2.60
2022-10-05T22:17:59.924Z,2.50
2022-10-05T22:20:27.286Z,2.90
2022-10-05T22:22:54.404Z,3.22
2022-10-05T22:25:22.149Z,3.00
2022-10-05T22:27:49.899Z,2.90
2022-10-05T22:30:17.316Z,2.88
2022-10-05T22:32:44.587Z,3.22
2022-10-05T22:35:12.027Z,2.60
2022-10-05T22:37:39.173Z,3.05
2022-10-05T22:40:07.328Z,3.30
2022-10-05T22:42:34.545Z,2.50
2022-10-05T22:45:01.485Z,2.70
2022-10-05T22:47:28.338Z,2.97
2022-10-05T22:49:55.267Z,3.20
2022-10-05T22:52:22.113Z,2.83
2022-10-05T22:54:49.063Z,2.90
2022-10-05T22:57:16.291Z,2.43
2022-10-05T22:59:43.466Z,2.90
2022-10-05T23:02:12.402Z,3.08
2022-10-05T23:04:39.487Z,2.83
2022-10-05T23:07:06.803Z,3.28
2022-10-05T23:09:33.639Z,2.70
2022-10-05T23:12:00.521Z,2.45
2022-10-05T23:14:29.291Z,2.60
2022-10-05T23:16:56.477Z,2.45
2022-10-05T23:19:23.847Z,2.90
2022-10-05T23:21:50.726Z,2.93
2022-10-05T23:24:17.589Z,2.40
2022-10-05T23:26:44.418Z,2.60
2022-10-05T23:29:11.816Z,2.65
2022-10-05T23:31:38.649Z,2.65
2022-10-05T23:34:05.455Z,2.80
2022-10-05T23:36:32.379Z,2.92
2022-10-05T23:39:00.215Z,2.75
2022-10-05T23:41:27.659Z,2.58
2022-10-05T23:43:57.481Z,2.63
2022-10-05T23:46:24.565Z,2.20
2022-10-05T23:48:53.101Z,2.50
2022-10-05T23:51:20.379Z,2.80
2022-10-05T23:53:47.343Z,2.75
2022-10-05T23:56:14.420Z,2.50
2022-10-05T23:58:41.328Z,2.60
